Hlavní strana
METAR-TAF:

METAR-TAF

Letiště :

Victoria, Mahé, Seychely

zeměpisná šířka: 04-40S, zeměpisná délka: 055-31E, výška: 3 m

Aktuální stav počasí

Zpráva byla vytvořena před 19 minutami, v 22:00 UTC
Jihojihozápadní vítr 2 kt
Teplota 26°C
Vlhkost vzduchu 84%
Tlak 1011 hPa
Viditelnost 10 km a více

METAR: FSIA 132200Z AUTO 20002KT 9999 FEW023/// 26/23 Q1011

Čas: 02:19 (22:19 UTC)

Předpověď počasí

Zpráva byla vytvořena před 5 hodinami a 19 minutami, v 17:00 UTC
Předpověď platná od 13 v 18 UTC do 14 v 18 UTC
vítr z různých směrů 3 kt
Viditelnost 10 km a více
Skoro jasno ve výšce 2600 ft

TAF: FSIA 131700Z 1318/1418 VRB03KT 9999 FEW026

Stav a předpovědi počasí z více než 4 000 letišť (zprávy METAR a TAF).

Červené a žluté tečky na mapě představují dostupné meteorologické stanice.

Když kurzor umístíte na tečku, zobrazí se název stanice.

Pak kliknutím zobrazíte stav a předpověď počasí.

Chcete-li změnit mapu, kliknutím na zelené tlačítko se znaménkem +mapu přiblížíte, kliknutím na zelené tlačítko se znaménkem – mapu oddálíte a kliknutím na zelené šipky přejdete na sousední mapy.


METAR-TAF: